General Rafael Buelna International Airport
MMMZ : now visible

Airfield :











YOU CAN JOIN US ON...

 
LOGIN :

Register | Disclaimer

   EN    FR    IT 

 









Legend :    VFR   Marginal VFR   IFR   Intensive IFR   Very Intensive IFR
Visi :
Ceiling :
>= 8 km
>= 3000ft
5 to 8 km
1000 to 3000 ft
1500m to 5 km
500 to 1000 ft
800 to 1500m
200 to 500 ft
< 800m
< 200 ft
Symbols :   Thunderstorms  Fog  Heavy snow  Heavy precipitations  Wind > 20 kt






- Airport Elevation : 38 ft
- IATA code : MZT


MMMZ - General Rafael Buelna International

CURRENT METAR :
  • 250454Z 18003KT 6SM -TSRA BKN020CB OVC030 26/23 A2989 RMK 8/9// LTGIC E-SE TSRA B50

EXPIRED METARs :
  • 250343Z 00000KT 8SM FEW030 BKN140 OVC200 27/23 A2986 RMK 8/527
  • 250246Z 00000KT 8SM FEW030 BKN110 OVC200 27/22 A2985 RMK SLP108 52013 961 8/477
  • 250144Z 30003KT 9SM SCT030 BKN110 OVC200 28/21 A2983 RMK 8/477
  • 250043Z 27004KT 10SM FEW030 BKN110 OVC240 28/21 A2982 RMK 8/477

TAF TAF MMMZ
Valid from the 25 at 00:00 until the 26 at 00:00 UTC


242314Z 2500/2600 30006KT P6SM SCT030 BKN110 OVC240 TX30/2519Z TN24/2509Z
TEMPO 2500/2504 5SM TSRA BKN015CB
FM250400 00000KT 6SM RA BKN020CB OVC080
FM251200 00000KT P6SM SCT020 BKN100
PROB40 2512/2515 6SM -RA
FM251800 15010KT P6SM BKN020 BKN100
MMFR FIR / North America



MET'MAP, your aeronautical weather chart ! - Copyright ORBIFLY December 2007 - Disclaimer

ORBIFLY MET'MAP TEAM :

Programming & Development : Alexandra Zaïnal
Original concept : Baudouin d'Aumeries
Technical & hardware support : Manuel Goepfert
Assistance : Marc-Olivier Méhu




SOURCES & CREDITS :

   NOAA       Earth
Advisory